createdAt,value
2017-11-07T00:02:17.697Z,15.27
2017-11-07T00:04:45.246Z,16.37
2017-11-07T00:07:12.818Z,16.05
2017-11-07T00:09:40.376Z,15.77
2017-11-07T00:12:07.938Z,16.25
2017-11-07T00:14:35.586Z,14.02
2017-11-07T00:17:03.194Z,15.20
2017-11-07T00:19:30.754Z,13.80
2017-11-07T00:21:58.338Z,14.80
2017-11-07T00:24:25.916Z,14.82
2017-11-07T00:26:54.289Z,15.80
2017-11-07T00:29:21.846Z,14.32
2017-11-07T00:31:49.402Z,13.00
2017-11-07T00:34:16.985Z,13.98
2017-11-07T00:36:44.549Z,13.20
2017-11-07T00:39:12.126Z,13.57
2017-11-07T00:41:39.708Z,13.07
2017-11-07T00:44:07.247Z,11.20
2017-11-07T00:46:34.820Z,13.30
2017-11-07T00:49:02.448Z,13.10
2017-11-07T00:51:30.001Z,12.93
2017-11-07T00:53:57.574Z,12.52
2017-11-07T00:56:25.183Z,13.23
2017-11-07T00:58:52.747Z,13.60
2017-11-07T01:01:21.152Z,13.60
2017-11-07T01:03:48.704Z,13.68
2017-11-07T01:06:16.312Z,14.13
2017-11-07T01:08:43.866Z,14.87
2017-11-07T01:11:11.487Z,13.62
2017-11-07T01:13:39.058Z,13.85
2017-11-07T01:16:06.642Z,12.85
2017-11-07T01:18:34.232Z,14.02
2017-11-07T01:21:01.842Z,12.98
2017-11-07T01:23:29.413Z,12.60
2017-11-07T01:25:56.963Z,12.82
2017-11-07T01:28:24.520Z,12.80
2017-11-07T01:30:52.104Z,13.30
2017-11-07T01:33:19.696Z,14.13
2017-11-07T01:35:47.267Z,14.20
2017-11-07T01:38:14.841Z,14.63
2017-11-07T01:40:43.646Z,14.25
2017-11-07T01:43:11.222Z,13.35
2017-11-07T01:45:38.781Z,14.10
2017-11-07T01:48:06.352Z,14.00
2017-11-07T01:50:33.914Z,13.07
2017-11-07T01:53:01.495Z,13.13
2017-11-07T01:55:29.029Z,13.95
2017-11-07T01:57:56.569Z,12.75
2017-11-07T02:00:24.138Z,13.30
2017-11-07T02:02:51.701Z,14.00
2017-11-07T02:05:19.291Z,14.07
2017-11-07T02:07:46.857Z,13.30
2017-11-07T02:10:14.453Z,12.95
2017-11-07T02:12:42.024Z,13.55
2017-11-07T02:15:10.385Z,13.05
2017-11-07T02:17:37.967Z,14.35
2017-11-07T02:20:06.292Z,13.15
2017-11-07T02:22:33.853Z,13.13
2017-11-07T02:25:01.426Z,13.27
2017-11-07T02:27:28.993Z,13.27
2017-11-07T02:29:56.588Z,13.93
2017-11-07T02:32:24.915Z,13.80
2017-11-07T02:34:52.481Z,13.55
2017-11-07T02:37:20.049Z,13.52
2017-11-07T02:39:47.602Z,13.23
2017-11-07T02:42:15.168Z,12.77
2017-11-07T02:44:42.716Z,12.52
2017-11-07T02:47:10.302Z,14.00
2017-11-07T02:49:37.849Z,12.77
2017-11-07T02:52:05.484Z,12.15
2017-11-07T02:54:33.049Z,12.88
2017-11-07T02:57:00.623Z,13.35
2017-11-07T02:59:28.193Z,13.30
2017-11-07T03:01:55.742Z,13.43
2017-11-07T03:04:23.330Z,12.30
2017-11-07T03:06:50.900Z,12.60
2017-11-07T03:09:19.248Z,12.32
2017-11-07T03:11:46.787Z,12.85
2017-11-07T03:14:14.366Z,12.70
2017-11-07T03:16:41.910Z,13.18
2017-11-07T03:19:09.560Z,12.45
2017-11-07T03:21:37.119Z,13.10
2017-11-07T03:24:04.686Z,12.50
2017-11-07T03:26:32.268Z,12.37
2017-11-07T03:28:59.822Z,12.50
2017-11-07T03:31:27.387Z,12.50
2017-11-07T03:33:55.825Z,12.77
2017-11-07T03:36:23.414Z,12.07
2017-11-07T03:38:50.955Z,12.98
2017-11-07T03:41:18.519Z,12.73
2017-11-07T03:43:46.074Z,12.60
2017-11-07T03:46:13.636Z,12.13
2017-11-07T03:48:41.204Z,12.48
2017-11-07T03:51:08.773Z,12.45
2017-11-07T03:53:37.091Z,12.75
2017-11-07T03:56:05.437Z,12.20
2017-11-07T03:58:32.994Z,12.73
2017-11-07T04:01:00.563Z,12.73
2017-11-07T04:03:28.135Z,12.75
2017-11-07T04:05:55.709Z,11.60
2017-11-07T04:08:24.032Z,12.35
2017-11-07T04:10:51.593Z,12.93
2017-11-07T04:13:19.141Z,12.48
2017-11-07T04:15:46.695Z,11.63
2017-11-07T04:18:14.253Z,12.52
2017-11-07T04:20:41.833Z,12.73
2017-11-07T04:23:09.390Z,11.60
2017-11-07T04:25:36.934Z,11.60
2017-11-07T04:28:04.517Z,10.77
2017-11-07T04:30:32.075Z,11.98
2017-11-07T04:32:59.652Z,11.55
2017-11-07T04:35:27.211Z,11.35
2017-11-07T04:37:54.775Z,12.43
2017-11-07T04:40:22.350Z,11.00
2017-11-07T04:42:49.895Z,12.27
2017-11-07T04:45:17.495Z,11.00
2017-11-07T04:47:45.818Z,12.32
2017-11-07T04:50:13.367Z,11.77
2017-11-07T04:52:40.920Z,11.20
2017-11-07T04:55:08.475Z,11.55
2017-11-07T04:57:36.026Z,11.80
2017-11-07T05:00:03.598Z,11.77
2017-11-07T05:02:31.157Z,11.12
2017-11-07T05:04:58.693Z,11.95
2017-11-07T05:07:28.002Z,11.55
2017-11-07T05:09:56.310Z,12.25
2017-11-07T05:12:23.881Z,12.98
2017-11-07T05:14:51.426Z,11.98
2017-11-07T05:17:19.006Z,11.98
2017-11-07T05:19:46.562Z,12.88
2017-11-07T05:22:14.121Z,12.80
2017-11-07T05:24:41.687Z,13.48
2017-11-07T05:27:09.270Z,12.77
2017-11-07T05:29:36.818Z,12.02
2017-11-07T05:32:04.406Z,13.93
2017-11-07T05:34:32.753Z,12.90
2017-11-07T05:37:00.311Z,13.75
2017-11-07T05:39:27.869Z,13.05
2017-11-07T05:41:55.462Z,14.20
2017-11-07T05:44:23.859Z,14.60
2017-11-07T05:46:51.429Z,14.10
2017-11-07T05:49:19.033Z,13.82
2017-11-07T05:51:46.657Z,14.07
2017-11-07T05:54:14.227Z,14.52
2017-11-07T05:56:41.762Z,21.73
2017-11-07T05:59:09.339Z,15.00
2017-11-07T06:01:36.901Z,14.20
2017-11-07T06:04:04.473Z,14.20
2017-11-07T06:06:32.076Z,14.57
2017-11-07T06:08:59.621Z,14.77
2017-11-07T06:11:27.190Z,15.88
2017-11-07T06:13:54.764Z,15.10
2017-11-07T06:16:23.103Z,18.80
2017-11-07T06:18:50.668Z,18.00
2017-11-07T06:21:18.248Z,14.82
2017-11-07T06:23:45.794Z,15.25
2017-11-07T06:26:13.369Z,14.65
2017-11-07T06:28:40.939Z,14.75
2017-11-07T06:31:08.486Z,15.82
2017-11-07T06:33:36.087Z,15.30
2017-11-07T06:36:03.633Z,15.30
2017-11-07T06:38:31.954Z,14.95
2017-11-07T06:40:59.527Z,14.60
2017-11-07T06:43:27.115Z,14.77
2017-11-07T06:45:54.669Z,14.70
2017-11-07T06:48:22.235Z,15.57
2017-11-07T06:50:49.787Z,14.38
2017-11-07T06:53:17.846Z,14.10
2017-11-07T06:55:45.409Z,15.25
2017-11-07T06:58:13.038Z,15.20
2017-11-07T07:00:40.621Z,14.82
2017-11-07T07:03:08.177Z,16.02
2017-11-07T07:05:36.525Z,15.32
2017-11-07T07:08:04.114Z,16.00
2017-11-07T07:10:32.434Z,15.93
2017-11-07T07:13:00.786Z,14.52
2017-11-07T07:15:28.353Z,14.55
2017-11-07T07:17:55.916Z,16.52
2017-11-07T07:20:23.480Z,22.60
2017-11-07T07:22:51.030Z,16.25
2017-11-07T07:25:18.629Z,16.67
2017-11-07T07:27:46.182Z,15.35
2017-11-07T07:30:13.739Z,15.55
2017-11-07T07:32:42.043Z,15.95
2017-11-07T07:35:09.626Z,15.20
2017-11-07T07:37:37.197Z,15.35
2017-11-07T07:40:04.775Z,15.40
2017-11-07T07:42:32.339Z,15.02
2017-11-07T07:44:59.902Z,16.05
2017-11-07T07:47:27.470Z,15.90
2017-11-07T07:49:55.021Z,15.57
2017-11-07T07:52:22.675Z,16.10
2017-11-07T07:54:50.523Z,15.52
2017-11-07T07:57:18.085Z,15.63
2017-11-07T07:59:45.719Z,16.00
2017-11-07T08:02:13.271Z,16.90
2017-11-07T08:04:40.845Z,15.25
2017-11-07T08:07:08.389Z,15.90
2017-11-07T08:09:36.133Z,15.23
2017-11-07T08:12:04.461Z,15.85
2017-11-07T08:14:32.793Z,15.45
2017-11-07T08:17:01.123Z,16.25
2017-11-07T08:19:28.705Z,16.17
2017-11-07T08:21:56.277Z,14.87
2017-11-07T08:24:23.828Z,15.35
2017-11-07T08:26:51.376Z,16.20
2017-11-07T08:29:18.925Z,15.50
2017-11-07T08:31:47.844Z,14.77
2017-11-07T08:34:16.959Z,15.38
2017-11-07T08:36:45.304Z,15.77
2017-11-07T08:39:12.986Z,16.60
2017-11-07T08:41:40.770Z,14.98
2017-11-07T08:44:11.563Z,17.08
2017-11-07T08:46:39.137Z,16.12
2017-11-07T08:49:06.723Z,23.12
2017-11-07T08:51:34.270Z,16.15
2017-11-07T08:54:01.868Z,16.83
2017-11-07T08:56:30.183Z,17.33
2017-11-07T08:58:57.786Z,15.40
2017-11-07T09:01:25.358Z,16.05
2017-11-07T09:03:53.686Z,16.65
2017-11-07T09:06:22.394Z,16.65
2017-11-07T09:08:50.165Z,16.02
2017-11-07T09:11:18.084Z,15.65
2017-11-07T09:13:45.661Z,16.27
2017-11-07T09:16:13.222Z,17.20
2017-11-07T09:18:41.587Z,17.10
2017-11-07T09:21:09.153Z,16.62
2017-11-07T09:23:36.765Z,16.77
2017-11-07T09:26:04.335Z,17.77
2017-11-07T09:28:32.681Z,16.25
2017-11-07T09:31:00.222Z,16.30
2017-11-07T09:33:27.798Z,16.30
2017-11-07T09:35:55.340Z,16.75
2017-11-07T09:38:22.900Z,16.42
2017-11-07T09:40:50.457Z,16.58
2017-11-07T09:43:18.007Z,17.05
2017-11-07T09:45:45.576Z,17.12
2017-11-07T09:48:13.122Z,16.80
2017-11-07T09:50:40.709Z,16.77
2017-11-07T09:53:08.290Z,16.80
2017-11-07T09:55:35.878Z,17.20
2017-11-07T09:58:04.203Z,15.77
2017-11-07T10:00:31.778Z,16.85
2017-11-07T10:02:59.347Z,16.35
2017-11-07T10:05:27.671Z,17.20
2017-11-07T10:07:55.244Z,15.98
2017-11-07T10:10:22.821Z,16.35
2017-11-07T10:12:50.413Z,16.92
2017-11-07T10:15:17.963Z,21.62
2017-11-07T10:17:45.550Z,18.00
2017-11-07T10:20:13.885Z,16.48
2017-11-07T10:22:41.496Z,17.00
2017-11-07T10:25:09.813Z,18.05
2017-11-07T10:27:37.404Z,16.87
2017-11-07T10:30:05.009Z,16.55
2017-11-07T10:32:32.613Z,17.67
2017-11-07T10:35:00.183Z,17.73
2017-11-07T10:37:27.730Z,16.27
2017-11-07T10:39:55.295Z,17.90
2017-11-07T10:42:22.874Z,16.08
2017-11-07T10:44:50.446Z,17.60
2017-11-07T10:47:18.761Z,17.30
2017-11-07T10:49:46.347Z,16.70
2017-11-07T10:52:13.913Z,17.15
2017-11-07T10:54:41.479Z,17.05
2017-11-07T10:57:09.055Z,16.27
2017-11-07T10:59:36.637Z,17.73
2017-11-07T11:02:04.990Z,16.55
2017-11-07T11:04:32.595Z,16.93
2017-11-07T11:07:00.146Z,16.90
2017-11-07T11:09:28.478Z,17.47
2017-11-07T11:11:56.036Z,19.67
2017-11-07T11:14:23.635Z,18.50
2017-11-07T11:16:51.962Z,17.87
2017-11-07T11:19:19.505Z,17.10
2017-11-07T11:21:47.075Z,23.83
2017-11-07T11:24:14.632Z,21.80
2017-11-07T11:26:42.206Z,16.20
2017-11-07T11:29:09.761Z,17.67
2017-11-07T11:31:37.321Z,17.20
2017-11-07T11:34:04.876Z,16.40
2017-11-07T11:36:32.454Z,16.73
2017-11-07T11:39:00.032Z,15.50
2017-11-07T11:41:28.781Z,16.17
2017-11-07T11:43:59.977Z,16.97
2017-11-07T11:46:31.500Z,17.00
2017-11-07T11:48:59.650Z,17.07
2017-11-07T11:51:27.224Z,17.67
2017-11-07T11:53:55.560Z,17.00
2017-11-07T11:56:23.118Z,17.67
2017-11-07T11:58:50.729Z,18.37
2017-11-07T12:01:18.923Z,16.60
2017-11-07T12:03:46.785Z,15.90
2017-11-07T12:06:15.392Z,16.37
2017-11-07T12:08:43.554Z,16.97
2017-11-07T12:11:11.188Z,16.33
2017-11-07T12:13:38.794Z,16.83
2017-11-07T12:16:06.403Z,17.20
2017-11-07T12:18:34.778Z,17.57
2017-11-07T12:21:03.550Z,17.53
2017-11-07T12:23:31.172Z,17.00
2017-11-07T12:25:58.852Z,18.73
2017-11-07T12:28:26.472Z,15.50
2017-11-07T12:30:54.055Z,16.60
2017-11-07T12:33:21.673Z,16.63
2017-11-07T12:35:50.089Z,17.87
2017-11-07T12:38:17.716Z,17.37
2017-11-07T12:40:46.335Z,17.00
2017-11-07T12:43:13.902Z,16.73
2017-11-07T12:45:41.504Z,17.23
2017-11-07T12:48:11.410Z,16.83
2017-11-07T12:50:51.819Z,17.43
2017-11-07T12:53:19.394Z,17.40
2017-11-07T12:55:49.282Z,16.80
2017-11-07T12:58:17.729Z,19.37
2017-11-07T13:00:45.301Z,18.67
2017-11-07T13:03:13.346Z,17.97
2017-11-07T13:05:43.980Z,17.57
2017-11-07T13:08:12.109Z,18.07
2017-11-07T13:10:39.752Z,17.43
2017-11-07T13:13:08.123Z,17.80
2017-11-07T13:15:35.707Z,16.83
2017-11-07T13:18:04.156Z,18.37
2017-11-07T13:20:31.715Z,18.13
2017-11-07T13:22:59.324Z,17.30
2017-11-07T13:25:26.992Z,19.20
2017-11-07T13:27:54.655Z,19.77
2017-11-07T13:30:22.213Z,18.63
2017-11-07T13:32:49.774Z,17.10
2017-11-07T13:35:17.394Z,17.80
2017-11-07T13:37:45.726Z,17.57
2017-11-07T13:40:13.333Z,17.07
2017-11-07T13:42:41.690Z,17.90
2017-11-07T13:45:09.244Z,18.13
2017-11-07T13:47:36.806Z,17.40
2017-11-07T13:50:04.354Z,22.43
2017-11-07T13:52:31.912Z,18.30
2017-11-07T13:54:59.524Z,17.57
2017-11-07T13:57:27.845Z,17.83
2017-11-07T13:59:55.397Z,18.27
2017-11-07T14:02:22.971Z,18.63
2017-11-07T14:04:50.554Z,18.00
2017-11-07T14:07:18.118Z,17.57
2017-11-07T14:09:45.706Z,19.30
2017-11-07T14:12:14.031Z,19.33
2017-11-07T14:14:41.593Z,19.20
2017-11-07T14:17:09.148Z,19.20
2017-11-07T14:19:36.706Z,18.33
2017-11-07T14:22:04.262Z,18.97
2017-11-07T14:24:31.821Z,18.83
2017-11-07T14:26:59.381Z,17.60
2017-11-07T14:29:27.717Z,19.17
2017-11-07T14:31:56.045Z,18.50
2017-11-07T14:34:23.592Z,18.40
2017-11-07T14:36:51.175Z,19.60
2017-11-07T14:39:18.733Z,19.17
2017-11-07T14:41:46.337Z,19.10
2017-11-07T14:44:14.657Z,19.20
2017-11-07T14:46:42.239Z,20.07
2017-11-07T14:49:09.789Z,19.90
2017-11-07T14:51:37.400Z,17.97
2017-11-07T14:54:05.733Z,17.50
2017-11-07T14:56:33.309Z,19.00
2017-11-07T14:59:00.980Z,16.93
2017-11-07T15:01:28.831Z,17.80
2017-11-07T15:03:57.228Z,18.03
2017-11-07T15:06:24.769Z,18.63
2017-11-07T15:08:52.342Z,17.70
2017-11-07T15:11:19.897Z,18.30
2017-11-07T15:13:47.457Z,18.37
2017-11-07T15:16:15.036Z,17.70
2017-11-07T15:18:42.657Z,17.03
2017-11-07T15:21:10.212Z,17.07
2017-11-07T15:23:43.385Z,17.50
2017-11-07T15:26:10.963Z,16.87
2017-11-07T15:28:38.570Z,17.93
2017-11-07T15:31:06.134Z,17.40
2017-11-07T15:33:34.518Z,17.67
2017-11-07T15:36:02.857Z,19.33
2017-11-07T15:38:30.531Z,18.63
2017-11-07T15:40:58.113Z,22.53
2017-11-07T15:43:25.695Z,18.67
2017-11-07T15:45:53.251Z,19.93
2017-11-07T15:48:20.830Z,20.63
2017-11-07T15:50:48.382Z,19.33
2017-11-07T15:53:16.022Z,20.30
2017-11-07T15:55:43.593Z,21.00
2017-11-07T15:58:11.160Z,20.50
2017-11-07T16:00:38.725Z,21.10
2017-11-07T16:03:06.616Z,20.23
2017-11-07T16:05:36.655Z,18.77
2017-11-07T16:08:05.133Z,22.13
2017-11-07T16:10:45.385Z,19.40
2017-11-07T16:13:19.542Z,19.57
2017-11-07T16:15:54.228Z,20.10
2017-11-07T16:18:26.307Z,21.93
2017-11-07T16:21:04.714Z,19.97
2017-11-07T16:23:34.447Z,21.73
2017-11-07T16:26:03.791Z,22.30
2017-11-07T16:28:31.543Z,24.83
2017-11-07T16:31:01.039Z,20.83
2017-11-07T16:33:33.770Z,20.83
2017-11-07T16:36:02.101Z,21.87
2017-11-07T16:38:31.548Z,23.67
2017-11-07T16:40:59.405Z,22.40
2017-11-07T16:43:32.141Z,22.47
2017-11-07T16:46:00.014Z,22.90
2017-11-07T16:48:29.596Z,22.10
2017-11-07T16:51:01.575Z,21.33
2017-11-07T16:53:30.929Z,23.03
2017-11-07T16:56:00.793Z,23.10
2017-11-07T16:58:28.578Z,23.17
2017-11-07T17:00:56.118Z,23.73
2017-11-07T17:03:23.689Z,21.83
2017-11-07T17:05:51.266Z,22.13
2017-11-07T17:08:19.632Z,23.00
2017-11-07T17:10:47.178Z,24.43
2017-11-07T17:13:14.752Z,24.33
2017-11-07T17:15:43.650Z,23.60
2017-11-07T17:18:11.206Z,24.60
2017-11-07T17:20:38.771Z,25.90
2017-11-07T17:23:06.492Z,25.00
2017-11-07T17:25:34.831Z,24.33
2017-11-07T17:28:05.592Z,23.40
2017-11-07T17:30:33.933Z,22.43
2017-11-07T17:33:01.478Z,24.80
2017-11-07T17:35:29.085Z,24.20
2017-11-07T17:37:57.453Z,24.77
2017-11-07T17:40:25.031Z,24.97
2017-11-07T17:42:53.406Z,24.53
2017-11-07T17:45:21.734Z,24.30
2017-11-07T17:47:49.294Z,23.03
2017-11-07T17:50:16.859Z,21.57
2017-11-07T17:52:44.422Z,22.97
2017-11-07T17:55:12.001Z,22.23
2017-11-07T18:00:19.655Z,24.83
2017-11-07T18:02:55.614Z,24.17
2017-11-07T18:05:34.650Z,20.73
2017-11-07T18:08:08.266Z,21.50
2017-11-07T18:10:41.121Z,22.80
2017-11-07T18:13:36.612Z,22.90
2017-11-07T18:16:04.830Z,23.63
2017-11-07T18:18:32.399Z,21.90
2017-11-07T18:21:04.376Z,26.57
2017-11-07T18:23:31.988Z,24.67
2017-11-07T18:26:00.331Z,21.30
2017-11-07T18:28:27.888Z,20.17
2017-11-07T18:30:55.494Z,21.60
2017-11-07T18:33:23.088Z,22.70
2017-11-07T18:35:50.650Z,21.37
2017-11-07T18:38:18.197Z,22.20
2017-11-07T18:40:45.777Z,27.23
2017-11-07T18:43:13.336Z,25.20
2017-11-07T18:45:40.913Z,21.10
2017-11-07T18:48:08.502Z,19.43
2017-11-07T18:50:37.100Z,19.83
2017-11-07T18:53:05.460Z,19.53
2017-11-07T18:55:33.036Z,19.57
2017-11-07T18:58:01.687Z,20.20
2017-11-07T19:00:33.709Z,20.90
2017-11-07T19:06:01.647Z,23.07
2017-11-07T19:08:34.621Z,25.73
2017-11-07T19:11:09.837Z,27.83
2017-11-07T19:16:19.649Z,25.57
2017-11-07T19:18:48.985Z,24.20
2017-11-07T19:21:17.346Z,20.87
2017-11-07T19:23:45.718Z,21.67
2017-11-07T19:26:15.271Z,22.60
2017-11-07T19:28:44.335Z,23.43
2017-11-07T19:31:18.488Z,28.17
2017-11-07T19:33:47.212Z,27.83
2017-11-07T19:36:14.783Z,25.50
2017-11-07T19:38:43.580Z,23.50
2017-11-07T19:41:13.943Z,23.80
2017-11-07T19:43:44.068Z,25.20
2017-11-07T19:46:15.757Z,23.27
2017-11-07T19:48:46.655Z,23.80
2017-11-07T19:51:18.343Z,20.60
2017-11-07T19:53:47.887Z,27.40
2017-11-07T19:56:16.228Z,23.97
2017-11-07T19:58:49.193Z,33.08
2017-11-07T20:01:17.701Z,30.73
2017-11-07T20:03:47.948Z,24.30
2017-11-07T20:06:15.554Z,21.67
2017-11-07T20:08:44.854Z,23.37
2017-11-07T20:11:16.349Z,27.23
2017-11-07T20:13:46.914Z,28.73
2017-11-07T20:16:17.582Z,21.40
2017-11-07T20:18:45.178Z,22.37
2017-11-07T20:21:15.007Z,20.60
2017-11-07T20:23:46.796Z,21.77
2017-11-07T20:26:16.449Z,20.83
2017-11-07T20:28:45.995Z,21.70
2017-11-07T20:31:15.283Z,21.97
2017-11-07T20:33:46.374Z,22.40
2017-11-07T20:36:15.331Z,22.67
2017-11-07T20:38:44.970Z,22.80
2017-11-07T20:41:15.719Z,22.80
2017-11-07T20:43:52.405Z,25.80
2017-11-07T20:46:26.479Z,21.87
2017-11-07T20:48:58.073Z,21.20
2017-11-07T20:51:28.936Z,21.87
2017-11-07T20:53:56.516Z,21.83
2017-11-07T20:56:24.856Z,21.73
2017-11-07T20:58:54.549Z,21.07
2017-11-07T21:07:30.427Z,24.30
2017-11-07T21:10:01.093Z,24.10
2017-11-07T21:15:16.378Z,21.43
2017-11-07T21:17:44.181Z,20.13
2017-11-07T21:20:12.801Z,22.30
2017-11-07T21:22:40.381Z,24.00
2017-11-07T21:25:10.424Z,22.33
2017-11-07T21:27:40.508Z,22.87
2017-11-07T21:30:11.974Z,24.90
2017-11-07T21:32:41.063Z,23.47
2017-11-07T21:35:11.719Z,23.03
2017-11-07T21:37:55.852Z,22.50
2017-11-07T21:40:24.199Z,22.03
2017-11-07T21:42:57.594Z,22.70
2017-11-07T21:45:27.170Z,21.50
2017-11-07T21:47:55.619Z,21.60
2017-11-07T21:50:25.462Z,20.93
2017-11-07T21:52:55.207Z,20.73
2017-11-07T21:55:26.700Z,20.80
2017-11-07T21:57:58.470Z,21.67
2017-11-07T22:00:27.775Z,21.07
2017-11-07T22:03:00.358Z,21.73
2017-11-07T22:05:27.998Z,22.40
2017-11-07T22:07:55.572Z,23.23
2017-11-07T22:10:23.140Z,22.10
2017-11-07T22:12:50.719Z,22.00
2017-11-07T22:15:18.267Z,23.00
2017-11-07T22:17:51.628Z,22.17
2017-11-07T22:20:19.219Z,22.50
2017-11-07T22:22:47.546Z,23.20
2017-11-07T22:25:17.029Z,22.93
2017-11-07T22:27:45.374Z,23.30
2017-11-07T22:30:12.929Z,22.77
2017-11-07T22:32:53.607Z,24.43
2017-11-07T22:35:21.175Z,25.43
2017-11-07T22:37:48.734Z,23.60
2017-11-07T22:40:16.294Z,27.33
2017-11-07T22:42:43.874Z,25.73
2017-11-07T22:45:11.434Z,30.30
2017-11-07T22:47:38.991Z,22.70
2017-11-07T22:50:06.539Z,21.87
2017-11-07T22:52:34.105Z,23.50
2017-11-07T22:55:01.663Z,22.77
2017-11-07T22:57:29.226Z,23.80
2017-11-07T22:59:56.780Z,22.20
2017-11-07T23:02:24.352Z,22.67
2017-11-07T23:04:51.909Z,24.47
2017-11-07T23:07:19.469Z,21.30
2017-11-07T23:09:47.052Z,23.27
2017-11-07T23:12:15.363Z,20.93
2017-11-07T23:14:42.947Z,23.50
2017-11-07T23:17:10.515Z,22.63
2017-11-07T23:19:38.080Z,21.93
2017-11-07T23:22:05.666Z,23.13
2017-11-07T23:24:33.990Z,23.80
2017-11-07T23:27:01.541Z,24.57
2017-11-07T23:29:29.139Z,23.23
2017-11-07T23:31:56.716Z,24.37
2017-11-07T23:34:24.268Z,23.10
2017-11-07T23:36:51.846Z,23.20
2017-11-07T23:39:20.174Z,23.53
2017-11-07T23:41:48.768Z,23.30
2017-11-07T23:44:16.337Z,22.80
2017-11-07T23:46:43.888Z,22.93
2017-11-07T23:49:11.455Z,23.20
2017-11-07T23:51:39.015Z,22.67
2017-11-07T23:54:06.579Z,24.40
2017-11-07T23:56:34.146Z,23.17
2017-11-07T23:59:01.705Z,23.47
